createdAt,value
2022-08-28T00:01:01.503Z,75.84
2022-08-28T00:03:32.647Z,75.84
2022-08-28T00:06:03.869Z,75.83
2022-08-28T00:08:36.848Z,75.88
2022-08-28T00:11:07.877Z,75.11
2022-08-28T00:13:39.570Z,75.68
2022-08-28T00:16:10.353Z,75.32
2022-08-28T00:18:40.743Z,75.48
2022-08-28T00:21:12.475Z,75.48
2022-08-28T00:23:43.341Z,75.36
2022-08-28T00:26:34.551Z,75.58
2022-08-28T00:29:06.399Z,74.73
2022-08-28T00:31:40.654Z,74.73
2022-08-28T00:34:11.952Z,74.75
2022-08-28T00:36:45.133Z,74.59
2022-08-28T00:39:15.518Z,74.26
2022-08-28T00:41:46.816Z,74.62
2022-08-28T00:44:26.639Z,74.43
2022-08-28T00:46:58.699Z,74.58
2022-08-28T00:49:33.764Z,74.24
2022-08-28T00:52:11.858Z,73.78
2022-08-28T00:54:59.161Z,73.75
2022-08-28T00:57:52.564Z,73.51
2022-08-28T01:00:22.580Z,73.55
2022-08-28T01:02:54.823Z,72.94
2022-08-28T01:05:26.420Z,73.28
2022-08-28T01:07:58.147Z,73.00
2022-08-28T01:10:31.704Z,73.21
2022-08-28T01:13:03.350Z,72.44
2022-08-28T01:15:39.902Z,72.08
2022-08-28T01:18:16.134Z,71.97
2022-08-28T01:21:21.343Z,72.01
2022-08-28T01:23:57.163Z,71.78
2022-08-28T01:26:30.908Z,71.87
2022-08-28T01:29:02.552Z,72.06
2022-08-28T01:31:34.684Z,71.92
2022-08-28T01:34:05.758Z,72.14
2022-08-28T01:36:36.122Z,72.57
2022-08-28T01:39:11.514Z,71.99
2022-08-28T01:41:44.873Z,72.77
2022-08-28T01:44:20.480Z,71.84
2022-08-28T01:46:50.724Z,71.19
2022-08-28T01:49:21.549Z,70.91
2022-08-28T01:51:52.331Z,70.70
2022-08-28T01:54:24.952Z,70.76
2022-08-28T01:56:55.717Z,71.50
2022-08-28T01:59:26.474Z,70.71
2022-08-28T02:01:57.526Z,71.34
2022-08-28T02:04:31.905Z,71.80
2022-08-28T02:07:02.636Z,71.71
2022-08-28T02:09:32.801Z,71.14
2022-08-28T02:12:03.204Z,71.28
2022-08-28T02:14:33.434Z,71.32
2022-08-28T02:17:04.798Z,70.55
2022-08-28T02:19:35.169Z,69.99
2022-08-28T02:22:10.464Z,70.58
2022-08-28T02:24:40.631Z,70.41
2022-08-28T02:27:11.247Z,69.91
2022-08-28T02:29:41.530Z,70.10
2022-08-28T02:32:11.771Z,70.31
2022-08-28T02:34:42.628Z,70.98
2022-08-28T02:37:31.315Z,71.12
2022-08-28T02:40:02.713Z,71.47
2022-08-28T02:42:33.189Z,71.08
2022-08-28T02:45:03.338Z,70.47
2022-08-28T02:47:34.091Z,70.53
2022-08-28T02:50:23.998Z,70.33
2022-08-28T02:52:54.663Z,71.03
2022-08-28T02:55:31.359Z,70.63
2022-08-28T02:58:04.206Z,70.32
2022-08-28T03:00:35.499Z,70.62
2022-08-28T03:03:05.800Z,70.10
2022-08-28T03:05:35.965Z,70.01
2022-08-28T03:08:06.835Z,70.23
2022-08-28T03:10:37.330Z,69.90
2022-08-28T03:13:08.303Z,68.35
2022-08-28T03:15:40.906Z,69.49
2022-08-28T03:18:11.718Z,69.12
2022-08-28T03:20:43.317Z,69.30
2022-08-28T03:23:28.968Z,68.62
2022-08-28T03:26:02.430Z,69.14
2022-08-28T03:28:36.771Z,69.45
2022-08-28T03:31:08.294Z,69.24
2022-08-28T03:33:41.920Z,67.75
2022-08-28T03:36:20.109Z,67.83
2022-08-28T03:38:51.513Z,67.94
2022-08-28T03:41:21.989Z,68.25
2022-08-28T03:43:53.183Z,67.94
2022-08-28T03:46:25.950Z,67.88
2022-08-28T03:48:57.916Z,68.22
2022-08-28T03:51:33.847Z,68.53
2022-08-28T03:54:06.201Z,68.25
2022-08-28T03:56:36.385Z,68.25
2022-08-28T03:59:07.638Z,68.08
2022-08-28T04:01:41.902Z,66.70
2022-08-28T04:04:12.455Z,67.69
2022-08-28T04:06:43.149Z,68.40
2022-08-28T04:09:13.241Z,68.88
2022-08-28T04:11:46.701Z,67.97
2022-08-28T04:14:16.997Z,67.70
2022-08-28T04:16:47.159Z,66.90
2022-08-28T04:19:17.328Z,67.03
2022-08-28T04:21:47.605Z,67.43
2022-08-28T04:24:17.835Z,67.83
2022-08-28T04:26:48.166Z,67.67
2022-08-28T04:29:18.377Z,68.26
2022-08-28T04:31:48.903Z,66.82
2022-08-28T04:37:04.376Z,67.45
2022-08-28T04:39:36.159Z,67.26
2022-08-28T04:42:06.437Z,67.44
2022-08-28T04:44:36.825Z,67.74
2022-08-28T04:47:07.237Z,67.87
2022-08-28T04:49:37.907Z,67.68
2022-08-28T04:52:08.185Z,67.88
2022-08-28T04:54:38.562Z,68.30
2022-08-28T04:57:08.859Z,68.28
2022-08-28T04:59:39.823Z,68.73
2022-08-28T05:02:10.514Z,69.03
2022-08-28T05:04:40.863Z,68.10
2022-08-28T05:07:11.174Z,68.50
2022-08-28T05:09:41.196Z,68.31
2022-08-28T05:12:11.844Z,68.51
2022-08-28T05:14:45.613Z,68.96
2022-08-28T05:17:16.475Z,68.40
2022-08-28T05:45:36.922Z,68.97
2022-08-28T05:48:07.765Z,68.25
2022-08-28T05:50:44.512Z,68.55
2022-08-28T05:53:20.269Z,67.79
2022-08-28T05:56:08.625Z,67.46
2022-08-28T05:58:39.896Z,67.08
2022-08-28T06:01:12.544Z,67.93
2022-08-28T06:03:44.685Z,67.03
2022-08-28T06:06:15.177Z,66.83
2022-08-28T06:08:58.157Z,66.96
2022-08-28T06:11:32.710Z,66.14
2022-08-28T06:14:04.682Z,65.26
2022-08-28T06:16:35.342Z,65.59
2022-08-28T06:19:05.828Z,65.96
2022-08-28T06:21:35.970Z,66.02
2022-08-28T06:27:07.894Z,65.50
2022-08-28T06:39:18.217Z,65.30
2022-08-28T06:41:48.456Z,65.85
2022-08-28T06:44:22.682Z,65.98
2022-08-28T06:46:55.878Z,65.98
2022-08-28T06:49:26.022Z,65.73
2022-08-28T06:51:56.067Z,65.50
2022-08-28T06:54:26.146Z,65.22
2022-08-28T06:56:56.390Z,65.79
2022-08-28T06:59:26.559Z,66.34
2022-08-28T07:02:15.676Z,67.05
2022-08-28T07:04:45.829Z,67.61
2022-08-28T07:07:33.899Z,68.21
2022-08-28T07:10:04.053Z,68.50
2022-08-28T07:12:34.092Z,68.62
2022-08-28T07:15:06.435Z,69.39
2022-08-28T07:17:36.640Z,69.72
2022-08-28T07:20:10.194Z,69.09
2022-08-28T07:22:43.160Z,68.88
2022-08-28T07:25:13.787Z,68.65
2022-08-28T07:27:43.943Z,68.70
2022-08-28T07:30:15.368Z,68.62
2022-08-28T07:32:45.776Z,69.17
2022-08-28T07:35:16.049Z,68.75
2022-08-28T07:37:47.494Z,68.44
2022-08-28T07:40:17.844Z,68.35
2022-08-28T07:43:06.465Z,67.89
2022-08-28T07:45:37.906Z,67.90
2022-08-28T07:48:11.685Z,68.10
2022-08-28T07:50:42.095Z,68.17
2022-08-28T07:53:13.286Z,68.10
2022-08-28T07:55:43.312Z,67.28
2022-08-28T07:58:14.219Z,68.08
2022-08-28T08:00:44.154Z,68.04
2022-08-28T08:03:14.586Z,66.65
2022-08-28T08:05:44.809Z,66.60
2022-08-28T08:08:15.085Z,66.77
2022-08-28T08:10:45.367Z,66.29
2022-08-28T08:13:17.087Z,66.04
2022-08-28T08:15:47.340Z,66.06
2022-08-28T08:18:45.915Z,65.00
2022-08-28T08:21:17.865Z,65.41
2022-08-28T08:23:49.308Z,65.63
2022-08-28T08:26:20.594Z,65.56
2022-08-28T08:28:52.844Z,65.82
2022-08-28T08:31:29.814Z,66.12
2022-08-28T08:34:04.203Z,66.33
2022-08-28T08:36:36.360Z,66.80
2022-08-28T08:39:09.688Z,66.81
2022-08-28T08:41:50.183Z,66.22
2022-08-28T08:44:43.679Z,66.67
2022-08-28T08:47:24.297Z,66.47
2022-08-28T08:49:59.423Z,66.79
2022-08-28T08:52:49.530Z,66.01
2022-08-28T08:55:34.195Z,65.13
2022-08-28T08:58:11.971Z,64.74
2022-08-28T09:01:06.882Z,65.41
2022-08-28T09:03:57.979Z,64.72
2022-08-28T09:06:43.925Z,65.57
2022-08-28T09:09:30.199Z,66.08
2022-08-28T09:12:12.641Z,65.89
2022-08-28T09:14:48.376Z,65.53
2022-08-28T09:17:22.247Z,65.74
2022-08-28T09:19:52.450Z,65.42
2022-08-28T09:22:24.621Z,64.82
2022-08-28T09:24:54.968Z,64.66
2022-08-28T09:27:33.239Z,65.29
2022-08-28T09:30:11.002Z,65.68
2022-08-28T09:32:46.495Z,66.31
2022-08-28T09:35:30.219Z,66.29
2022-08-28T09:38:21.588Z,65.34
2022-08-28T09:41:10.166Z,65.42
2022-08-28T09:43:42.001Z,66.02
2022-08-28T09:46:24.281Z,65.89
2022-08-28T09:48:54.705Z,65.29
2022-08-28T09:51:25.181Z,65.84
2022-08-28T09:53:58.235Z,65.60
2022-08-28T09:56:34.201Z,66.22
2022-08-28T09:59:13.253Z,66.15
2022-08-28T10:02:12.521Z,65.92
2022-08-28T10:05:10.906Z,66.42
2022-08-28T10:07:44.471Z,66.00
2022-08-28T10:10:18.618Z,65.50
2022-08-28T10:13:13.368Z,65.57
2022-08-28T10:16:12.515Z,65.94
2022-08-28T10:18:59.042Z,65.78
2022-08-28T10:21:37.980Z,66.24
2022-08-28T10:24:36.033Z,66.55
2022-08-28T10:27:35.270Z,66.56
2022-08-28T10:30:15.821Z,65.97
2022-08-28T10:33:03.665Z,65.80
2022-08-28T10:35:54.693Z,66.50
2022-08-28T10:38:53.114Z,66.64
2022-08-28T10:41:50.909Z,67.16
2022-08-28T10:44:28.337Z,67.07
2022-08-28T10:47:00.772Z,67.24
2022-08-28T10:49:49.657Z,66.83
2022-08-28T10:52:52.063Z,66.49
2022-08-28T10:55:30.103Z,66.54
2022-08-28T10:58:04.807Z,66.51
2022-08-28T11:00:51.727Z,66.72
2022-08-28T11:03:34.289Z,67.23
2022-08-28T11:06:31.535Z,66.80
2022-08-28T11:09:26.658Z,66.50
2022-08-28T11:12:03.210Z,66.54
2022-08-28T11:14:48.446Z,66.70
2022-08-28T11:17:25.108Z,67.19
2022-08-28T11:20:13.560Z,67.54
2022-08-28T11:23:02.723Z,67.40
2022-08-28T11:25:37.196Z,67.14
2022-08-28T11:28:19.726Z,67.20
2022-08-28T11:31:19.255Z,66.80
2022-08-28T11:34:02.368Z,66.90
2022-08-28T11:36:32.567Z,67.25
2022-08-28T11:39:20.328Z,67.50
2022-08-28T11:42:15.926Z,67.48
2022-08-28T11:44:48.181Z,67.75
2022-08-28T11:47:46.509Z,68.02
2022-08-28T11:50:27.147Z,68.54
2022-08-28T11:53:15.583Z,68.33
2022-08-28T11:59:13.327Z,67.71
2022-08-28T12:01:43.139Z,67.78
2022-08-28T12:04:15.420Z,67.56
2022-08-28T12:06:51.715Z,66.77
2022-08-28T12:09:45.280Z,66.94
2022-08-28T12:12:18.162Z,67.25
2022-08-28T12:15:02.409Z,67.63
2022-08-28T12:17:45.776Z,67.72
2022-08-28T12:20:26.115Z,67.52
2022-08-28T12:22:59.136Z,67.03
2022-08-28T12:25:48.816Z,66.34
2022-08-28T12:28:24.699Z,66.26
2022-08-28T12:31:16.392Z,66.92
2022-08-28T12:34:03.444Z,67.46
2022-08-28T12:36:34.421Z,67.36
2022-08-28T12:39:06.164Z,65.42
2022-08-28T12:41:36.500Z,66.32
2022-08-28T12:44:08.635Z,67.35
2022-08-28T12:46:45.232Z,67.29
2022-08-28T12:49:36.359Z,67.90
2022-08-28T12:52:16.643Z,67.76
2022-08-28T12:54:51.986Z,67.12
2022-08-28T12:57:25.529Z,67.29
2022-08-28T12:59:58.519Z,67.05
2022-08-28T13:02:38.225Z,66.79
2022-08-28T13:05:11.885Z,67.09
2022-08-28T13:07:52.093Z,67.94
2022-08-28T13:10:27.132Z,68.56
2022-08-28T13:13:20.752Z,68.74
2022-08-28T13:15:53.128Z,69.19
2022-08-28T13:18:59.280Z,69.52
2022-08-28T13:21:34.897Z,69.77
2022-08-28T13:24:29.836Z,70.01
2022-08-28T13:27:04.738Z,70.24
2022-08-28T13:29:35.573Z,70.35
2022-08-28T13:32:09.912Z,70.90
2022-08-28T13:34:47.913Z,70.76
2022-08-28T13:37:47.640Z,71.13
2022-08-28T13:40:53.265Z,71.53
2022-08-28T13:43:13.100Z,71.75
2022-08-28T13:45:46.715Z,71.73
2022-08-28T13:48:30.625Z,72.29
2022-08-28T13:51:12.049Z,72.29
2022-08-28T13:53:49.926Z,72.86
2022-08-28T13:56:21.903Z,73.03
2022-08-28T13:58:57.377Z,73.18
2022-08-28T14:01:51.592Z,73.16
2022-08-28T14:04:40.158Z,73.72
2022-08-28T14:07:10.761Z,73.57
2022-08-28T14:09:42.030Z,73.77
2022-08-28T14:12:13.579Z,73.58
2022-08-28T14:14:44.483Z,73.89
2022-08-28T14:17:15.233Z,73.99
2022-08-28T14:19:45.273Z,74.05
2022-08-28T14:22:15.783Z,74.01
2022-08-28T14:24:46.220Z,73.95
2022-08-28T14:27:16.477Z,74.34
2022-08-28T14:32:32.333Z,74.56
2022-08-28T14:35:02.619Z,74.39
2022-08-28T14:37:32.754Z,74.06
2022-08-28T14:40:02.803Z,73.64
2022-08-28T14:42:32.788Z,73.80
2022-08-28T14:45:02.926Z,73.83
2022-08-28T14:47:33.040Z,73.84
2022-08-28T14:50:03.293Z,74.17
2022-08-28T14:52:33.755Z,74.35
2022-08-28T14:55:03.912Z,74.18
2022-08-28T14:57:34.102Z,74.18
2022-08-28T15:00:05.661Z,74.80
2022-08-28T15:02:35.859Z,74.96
2022-08-28T15:05:06.297Z,74.69
2022-08-28T15:07:36.544Z,74.84
2022-08-28T15:10:07.500Z,75.03
2022-08-28T15:12:37.768Z,75.18
2022-08-28T15:15:08.911Z,75.26
2022-08-28T15:17:38.944Z,74.97
2022-08-28T15:20:09.322Z,75.22
2022-08-28T15:22:39.699Z,75.33
2022-08-28T15:25:10.532Z,75.41
2022-08-28T15:27:41.420Z,75.52
2022-08-28T15:30:12.332Z,75.62
2022-08-28T15:32:44.366Z,75.66
2022-08-28T15:35:14.958Z,75.77
2022-08-28T15:37:45.162Z,76.08
2022-08-28T15:40:33.886Z,75.90
2022-08-28T15:48:40.524Z,76.04
2022-08-28T15:51:10.927Z,75.77
2022-08-28T15:53:42.034Z,75.95
2022-08-28T15:56:31.115Z,75.55
2022-08-28T15:59:01.085Z,75.98
2022-08-28T16:01:31.574Z,76.10
2022-08-28T16:04:01.727Z,76.12
2022-08-28T16:06:31.906Z,75.87
2022-08-28T16:09:02.090Z,75.83
2022-08-28T16:11:33.882Z,76.16
2022-08-28T16:14:07.357Z,75.86
2022-08-28T16:16:37.727Z,76.01
2022-08-28T16:19:10.384Z,75.86
2022-08-28T16:21:40.835Z,76.29
2022-08-28T16:24:11.165Z,76.39
2022-08-28T16:26:42.568Z,76.31
2022-08-28T16:29:12.812Z,76.14
2022-08-28T16:31:43.519Z,76.04
2022-08-28T16:34:13.675Z,76.36
2022-08-28T16:36:43.823Z,76.16
2022-08-28T16:39:14.436Z,76.23
2022-08-28T16:41:48.382Z,76.07
2022-08-28T16:44:30.322Z,76.08
2022-08-28T16:47:00.741Z,75.64
2022-08-28T16:49:34.134Z,75.61
2022-08-28T16:52:04.416Z,75.61
2022-08-28T16:54:37.788Z,75.97
2022-08-28T16:57:18.158Z,75.41
2022-08-28T16:59:48.566Z,75.91
2022-08-28T17:02:27.121Z,76.00
2022-08-28T17:05:02.557Z,75.66
2022-08-28T17:07:33.088Z,76.26
2022-08-28T17:10:03.927Z,75.67
2022-08-28T17:12:34.513Z,76.06
2022-08-28T17:15:04.897Z,75.85
2022-08-28T17:17:35.298Z,76.11
2022-08-28T17:20:07.573Z,75.79
2022-08-28T17:22:37.909Z,75.59
2022-08-28T17:25:15.742Z,76.03
2022-08-28T17:27:46.117Z,76.00
2022-08-28T17:30:17.762Z,76.14
2022-08-28T17:32:48.736Z,76.11
2022-08-28T17:35:24.281Z,76.35
2022-08-28T17:37:56.270Z,76.03
2022-08-28T17:40:26.577Z,76.35
2022-08-28T17:42:56.836Z,76.01
2022-08-28T17:45:26.866Z,75.70
2022-08-28T17:48:00.263Z,76.11
2022-08-28T17:50:30.475Z,75.92
2022-08-28T17:53:18.604Z,75.91
2022-08-28T17:55:49.502Z,76.11
2022-08-28T17:58:19.729Z,76.36
2022-08-28T18:00:50.504Z,76.26
2022-08-28T18:03:21.603Z,76.38
2022-08-28T18:05:53.836Z,75.86
2022-08-28T18:08:24.040Z,75.79
2022-08-28T18:10:54.308Z,75.53
